Raisin, Texas
Current Conditions -  °F | °C
As of 11:51 PM on Tuesday 25 Nov 2014 (Local Time) from KVCT Reporting Station
Clear Clear  
Wind Chill: 45°   Ceiling: Unl
Heat Index: 48°   Visibility: 10mi
Dew Point: 39°   Wind: 7mph
Humidity: 71%   Direction: 210°SSW
Pressure: 30.26"   Gusts: NA
Location:  28.877°N, 97.189°W
Report Text: KVCT 260551Z AUTO 21006KT 10SM CLR 09/04 A3026 RMK AO2 SLP245 T00890039 10144 20089 402110056 58004
Loading
Personal Weather Stations






























Interactive Weather Map New forecast layout! Learn more

10-Day Weather Forecast

Advertisements
Track Severe Weather on mobile